Chino Hills, CA (91709)

11:39 PM PST on February 27, 2015 (GMT -0800)
Enclos Corp. | Change Station
CLOSE
Current Station
Personal Weather Station
Location: Chino, CA
Elevation: 612 ft
Nearby Weather Stations

Elev 612 ft 33.98 °N, 117.69 °W | Updated 47 seconds ago

Overcast
Overcast
55.7 °F
Feels Like 55.7 °F
N
0.0
Wind Variable Wind from SW
Gusts 2.0 mph

Today
High -- | Low -- °F
--% Chance of Precip.
Yesterday
High -- | Low -- °F
Precip. -- in
6:22 AM 5:45 PM
Waxing Gibbous, 75% visible
Pressure 29.78 in
Visibility 9.0 miles
Clouds Scattered Clouds 1800 ft
Mostly Cloudy 3200 ft
Overcast 4100 ft
Dew Point 49 °F
Humidity 79%
Rainfall 0.00 in
Snow Depth Not available.
UV 0 out of 12
Pollen 8.60 out of 12
Air Quality Not available.
Flu Activity Not available.
SPECI KCNO 280710Z AUTO 25006KT 9SM SCT018 BKN032 OVC041 13/11 A2978 RMK AO2 T01330106

More Conditions Fewer Conditions

Pressure 29.78 in
Visibility 9.0 miles
Clouds Scattered Clouds 1800 ft
Mostly Cloudy 3200 ft
Overcast 4100 ft
Dew Point 49 °F
Humidity 79%
Rainfall 0.00 in
Snow Depth Not available.
UV 0 out of 12
Pollen 8.60 out of 12
Air Quality Not available.
Flu Activity Not available.
SPECI KCNO 280710Z AUTO 25006KT 9SM SCT018 BKN032 OVC041 13/11 A2978 RMK AO2 T01330106

More Conditions Fewer Conditions

10-Day Weather Forecast

Almanac

Astronomy

Feb. 27, 2015 Rise Set
Actual Time
Civil Twilight
Nautical Twilight
Astronomical Twilight
Moon
Length of Visible Light
Length of Day
Tomorrow will be .
, % of the Moon is Illuminated

Today's Extremes

State Highs State Lows

Community

WunderPhotos

Upload Photos

1,800,981 photos uploaded!

WunderBlogs® & News

Nearby

Air Quality

  Air Quality AQ Index Pollutant
Not available.

Snow Depth

Station Depth Elevation

Earthquake Activity

City Distance Mag. Time & Date
Minimum magnitude displayed is 2.5.

Coastal Water Temperatures

Place Temperature

Nearby Weather Stations